createdAt,value
2019-05-01T00:01:29.026Z,9.73
2019-05-01T00:04:00.038Z,9.18
2019-05-01T00:06:31.231Z,8.95
2019-05-01T00:09:00.778Z,10.30
2019-05-01T00:11:30.216Z,11.18
2019-05-01T00:13:59.691Z,10.60
2019-05-01T00:16:29.367Z,11.00
2019-05-01T00:18:58.730Z,10.45
2019-05-01T00:21:28.101Z,9.98
2019-05-01T00:23:57.475Z,9.05
2019-05-01T00:26:26.900Z,11.57
2019-05-01T00:28:56.215Z,13.30
2019-05-01T00:31:25.948Z,12.18
2019-05-01T00:33:55.323Z,12.73
2019-05-01T00:36:25.725Z,10.68
2019-05-01T00:38:55.105Z,17.02
2019-05-01T00:41:24.492Z,15.93
2019-05-01T00:43:53.857Z,14.18
2019-05-01T00:46:23.257Z,17.32
2019-05-01T00:48:52.637Z,14.38
2019-05-01T00:51:22.011Z,15.43
2019-05-01T00:53:51.699Z,13.20
2019-05-01T00:56:22.793Z,16.10
2019-05-01T00:58:56.338Z,13.25
2019-05-01T01:01:39.304Z,14.98
2019-05-01T01:04:10.680Z,13.88
2019-05-01T01:06:40.067Z,13.72
2019-05-01T01:09:09.909Z,18.62
2019-05-01T01:11:39.283Z,14.63
2019-05-01T01:14:08.697Z,18.07
2019-05-01T01:16:38.097Z,14.47
2019-05-01T01:19:07.465Z,17.30
2019-05-01T01:21:36.911Z,16.12
2019-05-01T01:24:06.361Z,18.25
2019-05-01T01:26:36.315Z,18.07
2019-05-01T01:29:05.752Z,17.25
2019-05-01T01:31:35.269Z,16.60
2019-05-01T01:34:04.797Z,18.25
2019-05-01T01:36:34.174Z,15.78
2019-05-01T01:39:06.492Z,19.85
2019-05-01T01:41:37.186Z,18.40
2019-05-01T01:44:21.047Z,19.10
2019-05-01T01:46:52.499Z,17.20
2019-05-01T01:49:21.911Z,16.93
2019-05-01T01:51:52.406Z,18.82
2019-05-01T01:54:21.843Z,17.95
2019-05-01T01:56:51.862Z,17.80
2019-05-01T01:59:23.060Z,19.27
2019-05-01T02:01:56.711Z,18.92
2019-05-01T02:04:27.788Z,19.85
2019-05-01T02:06:57.529Z,20.02
2019-05-01T02:09:26.904Z,19.27
2019-05-01T02:11:56.288Z,20.90
2019-05-01T02:14:25.668Z,19.73
2019-05-01T02:16:55.041Z,24.05
2019-05-01T02:19:24.415Z,21.37
2019-05-01T02:21:53.808Z,21.15
2019-05-01T02:24:23.194Z,22.10
2019-05-01T02:26:54.780Z,21.27
2019-05-01T02:29:26.713Z,21.00
2019-05-01T02:31:57.974Z,21.85
2019-05-01T02:34:27.856Z,24.20
2019-05-01T02:37:01.800Z,24.37
2019-05-01T02:39:33.987Z,22.30
2019-05-01T02:42:06.956Z,24.63
2019-05-01T02:44:48.120Z,22.82
2019-05-01T02:47:24.757Z,23.22
2019-05-01T02:50:07.119Z,24.92
2019-05-01T02:52:38.915Z,23.35
2019-05-01T02:55:13.192Z,23.56
2019-05-01T02:57:43.438Z,24.40
2019-05-01T03:00:12.812Z,25.48
2019-05-01T03:02:43.764Z,25.97
2019-05-01T03:05:13.203Z,24.52
2019-05-01T03:07:43.386Z,23.92
2019-05-01T03:10:13.783Z,28.02
2019-05-01T03:12:46.364Z,28.25
2019-05-01T03:15:18.526Z,29.43
2019-05-01T03:17:51.474Z,28.52
2019-05-01T03:20:39.526Z,27.87
2019-05-01T03:23:17.259Z,28.25
2019-05-01T03:25:47.474Z,28.27
2019-05-01T03:28:17.017Z,26.02
2019-05-01T03:30:46.464Z,28.10
2019-05-01T03:33:15.905Z,28.65
2019-05-01T03:35:46.148Z,27.65
2019-05-01T03:38:16.890Z,26.97
2019-05-01T03:40:46.612Z,26.90
2019-05-01T03:43:17.633Z,31.65
2019-05-01T03:45:47.086Z,33.15
2019-05-01T03:48:16.543Z,35.78
2019-05-01T03:50:47.023Z,31.23
2019-05-01T03:53:18.228Z,30.17
2019-05-01T03:55:47.979Z,30.82
2019-05-01T03:58:17.612Z,30.88
2019-05-01T04:00:48.783Z,33.20
2019-05-01T04:03:28.876Z,32.00
2019-05-01T04:05:58.725Z,30.45
2019-05-01T04:08:28.681Z,28.67
2019-05-01T04:10:58.184Z,30.80
2019-05-01T04:13:28.497Z,32.25
2019-05-01T04:15:58.046Z,31.00
2019-05-01T04:18:27.905Z,31.75
2019-05-01T04:20:58.437Z,31.82
2019-05-01T04:23:28.423Z,32.58
2019-05-01T04:25:57.938Z,31.25
2019-05-01T04:28:45.708Z,29.75
2019-05-01T04:31:19.599Z,31.52
2019-05-01T04:33:53.145Z,29.98
2019-05-01T04:36:27.809Z,32.20
2019-05-01T04:38:57.425Z,31.48
2019-05-01T04:41:27.170Z,31.25
2019-05-01T04:43:57.155Z,29.07
2019-05-01T04:46:27.984Z,33.45
2019-05-01T04:48:58.444Z,29.85
2019-05-01T04:51:27.997Z,29.80
2019-05-01T04:53:57.503Z,29.40
2019-05-01T04:56:27.038Z,29.60
2019-05-01T04:58:56.792Z,35.60
2019-05-01T05:01:30.081Z,31.42
2019-05-01T05:04:00.709Z,32.63
2019-05-01T05:06:30.216Z,36.85
2019-05-01T05:08:59.986Z,29.85
2019-05-01T05:11:31.088Z,30.97
2019-05-01T05:16:47.055Z,31.60
2019-05-01T05:19:16.868Z,33.23
2019-05-01T05:21:46.245Z,32.33
2019-05-01T05:24:16.730Z,34.25
2019-05-01T05:26:47.150Z,35.43
2019-05-01T05:29:20.100Z,31.45
2019-05-01T05:31:51.805Z,34.20
2019-05-01T05:34:23.248Z,34.55
2019-05-01T05:36:57.434Z,34.98
2019-05-01T05:42:06.396Z,34.40
2019-05-01T05:44:35.941Z,32.23
2019-05-01T05:47:06.695Z,37.40
2019-05-01T05:49:36.217Z,36.48
2019-05-01T05:52:08.976Z,34.10
2019-05-01T05:54:51.540Z,35.05
2019-05-01T05:57:43.405Z,39.45
2019-05-01T06:00:30.813Z,36.35
2019-05-01T06:03:14.646Z,38.45
2019-05-01T06:06:05.399Z,38.08
2019-05-01T06:08:39.386Z,42.33
2019-05-01T06:11:15.647Z,39.73
2019-05-01T06:13:57.000Z,40.30
2019-05-01T06:16:29.925Z,36.85
2019-05-01T06:19:01.010Z,40.15
2019-05-01T06:21:38.057Z,38.78
2019-05-01T06:24:09.310Z,40.90
2019-05-01T06:26:39.452Z,39.90
2019-05-01T06:29:09.501Z,37.05
2019-05-01T06:31:38.953Z,39.98
2019-05-01T06:34:08.397Z,41.88
2019-05-01T06:36:37.800Z,43.17
2019-05-01T06:39:12.009Z,45.58
2019-05-01T06:41:43.257Z,43.65
2019-05-01T06:44:19.834Z,45.08
2019-05-01T06:46:58.202Z,45.63
2019-05-01T06:49:41.599Z,45.05
2019-05-01T06:52:12.693Z,42.60
2019-05-01T06:54:42.142Z,43.73
2019-05-01T06:57:11.793Z,44.65
2019-05-01T06:59:42.775Z,45.17
2019-05-01T07:02:16.209Z,48.65
2019-05-01T07:04:49.639Z,49.27
2019-05-01T07:07:25.916Z,52.97
2019-05-01T07:09:56.309Z,47.40
2019-05-01T07:12:29.970Z,49.58
2019-05-01T07:14:59.938Z,46.25
2019-05-01T07:17:29.556Z,50.17
2019-05-01T07:20:12.024Z,47.20
2019-05-01T07:22:44.007Z,48.87
2019-05-01T07:25:13.791Z,52.38
2019-05-01T07:27:43.168Z,52.20
2019-05-01T07:30:29.711Z,53.30
2019-05-01T07:32:59.569Z,53.68
2019-05-01T07:35:33.015Z,50.90
2019-05-01T07:38:03.390Z,51.23
2019-05-01T07:40:33.115Z,47.23
2019-05-01T07:43:04.275Z,50.78
2019-05-01T07:45:51.307Z,51.33
2019-05-01T07:48:41.423Z,50.65
2019-05-01T07:51:10.127Z,53.75
2019-05-01T07:53:41.014Z,49.98
2019-05-01T07:56:10.938Z,53.87
2019-05-01T07:58:41.551Z,50.73
2019-05-01T08:01:20.052Z,50.28
2019-05-01T08:03:49.310Z,50.43
2019-05-01T08:06:21.452Z,52.75
2019-05-01T08:08:49.792Z,53.10
2019-05-01T08:11:19.185Z,50.10
2019-05-01T08:13:48.555Z,50.23
2019-05-01T08:16:17.929Z,47.00
2019-05-01T08:18:51.905Z,51.63
2019-05-01T08:21:38.066Z,50.52
2019-05-01T08:24:08.774Z,46.75
2019-05-01T08:26:39.758Z,49.77
2019-05-01T08:29:23.348Z,48.92
2019-05-01T08:31:54.395Z,49.33
2019-05-01T08:34:29.758Z,53.23
2019-05-01T08:36:59.837Z,46.90
2019-05-01T08:39:29.239Z,51.95
2019-05-01T08:42:02.998Z,48.30
2019-05-01T08:44:31.416Z,52.93
2019-05-01T08:47:05.122Z,48.33
2019-05-01T08:49:42.271Z,47.03
2019-05-01T08:52:13.666Z,45.25
2019-05-01T08:54:41.816Z,47.35
2019-05-01T08:57:11.617Z,51.00
2019-05-01T08:59:40.975Z,49.63
2019-05-01T09:02:10.724Z,49.03
2019-05-01T09:04:40.117Z,52.25
2019-05-01T09:07:09.501Z,41.48
2019-05-01T09:09:39.980Z,51.68
2019-05-01T09:12:11.864Z,44.15
2019-05-01T09:14:41.124Z,47.53
2019-05-01T09:17:10.516Z,43.15
2019-05-01T09:19:40.065Z,42.90
2019-05-01T09:22:09.447Z,41.90
2019-05-01T09:24:38.826Z,39.67
2019-05-01T09:27:29.461Z,35.85
2019-05-01T09:30:04.318Z,38.90
2019-05-01T09:32:32.419Z,41.30
2019-05-01T09:35:14.613Z,46.25
2019-05-01T09:37:33.282Z,38.53
2019-05-01T09:40:04.189Z,40.15
2019-05-01T09:42:34.122Z,36.83
2019-05-01T09:45:05.371Z,40.03
2019-05-01T09:47:34.839Z,38.88
2019-05-01T09:50:06.696Z,38.92
2019-05-01T09:52:55.046Z,37.93
2019-05-01T09:55:26.653Z,35.60
2019-05-01T09:57:56.405Z,39.33
2019-05-01T10:00:27.562Z,36.60
2019-05-01T10:02:56.960Z,38.28
2019-05-01T10:05:29.049Z,37.87
2019-05-01T10:08:00.186Z,40.73
2019-05-01T10:10:30.583Z,35.73
2019-05-01T10:13:00.102Z,36.42
2019-05-01T10:15:29.480Z,35.55
2019-05-01T10:17:58.858Z,38.63
2019-05-01T10:20:28.240Z,33.73
2019-05-01T10:22:57.611Z,36.80
2019-05-01T10:25:27.003Z,34.58
2019-05-01T10:27:58.024Z,34.05
2019-05-01T10:30:36.029Z,33.00
2019-05-01T10:33:04.744Z,31.77
2019-05-01T10:35:42.439Z,32.73
2019-05-01T10:38:09.312Z,32.85
2019-05-01T10:40:38.067Z,31.68
2019-05-01T10:43:07.506Z,33.48
2019-05-01T10:45:36.881Z,32.38
2019-05-01T10:48:06.597Z,35.63
2019-05-01T10:50:35.975Z,31.12
2019-05-01T10:53:05.552Z,29.12
2019-05-01T10:55:34.946Z,32.08
2019-05-01T10:58:04.324Z,31.12
2019-05-01T11:00:35.818Z,34.13
2019-05-01T11:03:05.276Z,31.68
2019-05-01T11:05:34.657Z,30.27
2019-05-01T11:08:04.491Z,29.42
2019-05-01T11:10:34.017Z,30.97
2019-05-01T11:13:03.573Z,27.65
2019-05-01T11:15:32.952Z,28.07
2019-05-01T11:18:02.340Z,29.92
2019-05-01T11:20:31.719Z,27.60
2019-05-01T11:23:01.085Z,26.35
2019-05-01T11:25:31.012Z,26.48
2019-05-01T11:28:00.392Z,26.15
2019-05-01T11:30:30.111Z,26.30
2019-05-01T11:33:01.314Z,23.32
2019-05-01T11:35:50.452Z,26.70
2019-05-01T11:38:21.474Z,24.60
2019-05-01T11:40:52.510Z,24.15
2019-05-01T11:43:21.893Z,20.57
2019-05-01T11:45:51.343Z,21.20
2019-05-01T11:48:20.666Z,22.60
2019-05-01T11:50:50.055Z,22.55
2019-05-01T11:53:19.778Z,16.97
2019-05-01T11:55:49.407Z,19.62
2019-05-01T11:58:18.881Z,22.00
2019-05-01T12:00:49.890Z,18.97
2019-05-01T12:03:20.421Z,17.70
2019-05-01T12:05:49.807Z,18.57
2019-05-01T12:08:19.211Z,18.20
2019-05-01T12:10:48.600Z,21.42
2019-05-01T12:13:17.975Z,17.75
2019-05-01T12:15:49.600Z,18.85
2019-05-01T12:18:18.986Z,16.37
2019-05-01T12:20:48.362Z,17.20
2019-05-01T12:23:17.777Z,15.93
2019-05-01T12:25:47.162Z,15.93
2019-05-01T12:28:16.534Z,20.85
2019-05-01T12:30:45.933Z,16.32
2019-05-01T12:33:15.312Z,16.90
2019-05-01T12:35:46.337Z,16.25
2019-05-01T12:38:15.850Z,18.05
2019-05-01T12:40:46.879Z,16.23
2019-05-01T12:43:16.255Z,16.60
2019-05-01T12:45:47.301Z,17.12
2019-05-01T12:48:16.678Z,15.85
2019-05-01T12:50:47.704Z,19.52
2019-05-01T12:53:19.172Z,16.93
2019-05-01T12:55:52.897Z,17.37
2019-05-01T12:58:22.279Z,16.37
2019-05-01T13:00:53.373Z,17.65
2019-05-01T13:03:22.743Z,16.30
2019-05-01T13:05:53.213Z,14.05
2019-05-01T13:08:23.038Z,16.32
2019-05-01T13:10:52.516Z,16.23
2019-05-01T13:13:21.869Z,15.70
2019-05-01T13:15:51.526Z,14.55
2019-05-01T13:18:20.909Z,15.18
2019-05-01T13:20:50.294Z,15.75
2019-05-01T13:23:19.690Z,15.38
2019-05-01T13:25:50.121Z,14.47
2019-05-01T13:28:21.163Z,14.03
2019-05-01T13:31:03.925Z,13.75
2019-05-01T13:33:33.366Z,14.63
2019-05-01T13:36:02.807Z,14.35
2019-05-01T13:38:32.186Z,15.68
2019-05-01T13:41:01.572Z,12.80
2019-05-01T13:43:30.939Z,13.98
2019-05-01T13:46:00.336Z,13.43
2019-05-01T13:48:29.707Z,12.15
2019-05-01T13:50:59.092Z,11.93
2019-05-01T13:53:28.542Z,11.12
2019-05-01T13:55:57.930Z,13.22
2019-05-01T13:58:27.369Z,15.48
2019-05-01T14:00:56.745Z,12.55
2019-05-01T14:03:26.188Z,15.95
2019-05-01T14:05:55.560Z,11.00
2019-05-01T14:08:26.051Z,10.40
2019-05-01T14:10:55.422Z,11.22
2019-05-01T14:13:24.798Z,10.25
2019-05-01T14:15:54.749Z,10.70
2019-05-01T14:18:24.116Z,11.68
2019-05-01T14:21:06.933Z,10.35
2019-05-01T14:23:54.064Z,14.23
2019-05-01T14:26:23.463Z,9.55
2019-05-01T14:28:52.874Z,9.10
2019-05-01T14:31:22.303Z,10.25
2019-05-01T14:33:52.417Z,10.45
2019-05-01T14:36:22.076Z,8.93
2019-05-01T14:38:51.447Z,8.60
2019-05-01T14:41:20.866Z,9.08
2019-05-01T14:43:50.234Z,8.10
2019-05-01T14:46:19.601Z,9.60
2019-05-01T14:48:48.981Z,7.87
2019-05-01T14:51:21.377Z,8.88
2019-05-01T14:53:49.434Z,6.85
2019-05-01T14:56:20.417Z,8.97
2019-05-01T14:58:50.146Z,8.03
2019-05-01T15:01:19.554Z,9.10
2019-05-01T15:03:48.897Z,7.40
2019-05-01T15:06:18.274Z,6.15
2019-05-01T15:08:47.650Z,7.25
2019-05-01T15:11:17.227Z,5.58
2019-05-01T15:13:54.096Z,9.78
2019-05-01T15:16:31.922Z,6.42
2019-05-01T15:19:05.800Z,7.15
2019-05-01T15:21:35.169Z,8.68
2019-05-01T15:24:04.623Z,6.17
2019-05-01T15:26:34.004Z,6.78
2019-05-01T15:29:03.387Z,10.08
2019-05-01T15:31:33.257Z,9.15
2019-05-01T15:34:02.990Z,7.00
2019-05-01T15:36:32.358Z,8.35
2019-05-01T15:39:03.376Z,7.00
2019-05-01T15:41:50.567Z,5.00
2019-05-01T15:44:21.622Z,5.75
2019-05-01T15:46:50.955Z,4.65
2019-05-01T15:49:20.326Z,7.72
2019-05-01T15:51:50.095Z,9.50
2019-05-01T15:54:19.527Z,5.22
2019-05-01T15:56:48.894Z,6.62
2019-05-01T15:59:18.331Z,6.67
2019-05-01T16:01:47.711Z,5.70
2019-05-01T16:04:17.076Z,5.92
2019-05-01T16:06:46.453Z,5.50
2019-05-01T16:09:15.953Z,7.25
2019-05-01T16:12:02.858Z,5.60
2019-05-01T16:14:33.221Z,9.15
2019-05-01T16:17:02.590Z,5.10
2019-05-01T16:19:32.089Z,6.87
2019-05-01T16:22:02.242Z,4.65
2019-05-01T16:24:31.605Z,4.12
2019-05-01T16:27:01.029Z,5.12
2019-05-01T16:29:30.408Z,4.97
2019-05-01T16:31:59.774Z,4.42
2019-05-01T16:34:29.392Z,7.08
2019-05-01T16:36:58.763Z,5.37
2019-05-01T16:39:35.365Z,6.67
2019-05-01T16:42:04.768Z,4.45
2019-05-01T16:44:34.139Z,5.15
2019-05-01T16:47:03.515Z,6.08
2019-05-01T16:49:33.479Z,3.67
2019-05-01T16:52:02.845Z,3.60
2019-05-01T16:54:32.477Z,4.62
2019-05-01T16:57:01.994Z,5.20
2019-05-01T16:59:31.367Z,5.58
2019-05-01T17:02:18.339Z,4.83
2019-05-01T17:05:00.987Z,5.28
2019-05-01T17:07:34.846Z,3.73
2019-05-01T17:10:10.809Z,3.80
2019-05-01T17:12:44.839Z,4.87
2019-05-01T17:17:44.426Z,5.95
2019-05-01T17:20:14.637Z,5.15
2019-05-01T17:22:46.329Z,4.17
2019-05-01T17:25:15.100Z,3.60
2019-05-01T17:27:44.641Z,3.50
2019-05-01T17:30:19.187Z,4.87
2019-05-01T17:32:48.550Z,4.47
2019-05-01T17:35:17.948Z,6.30
2019-05-01T17:37:47.313Z,5.25
2019-05-01T17:40:17.034Z,3.22
2019-05-01T17:42:46.871Z,4.95
2019-05-01T17:45:16.317Z,4.37
2019-05-01T17:47:45.921Z,5.37
2019-05-01T17:50:16.345Z,4.77
2019-05-01T17:52:47.052Z,3.08
2019-05-01T17:55:16.419Z,4.00
2019-05-01T17:57:45.795Z,3.12
2019-05-01T18:00:26.038Z,4.80
2019-05-01T18:03:02.934Z,5.55
2019-05-01T18:05:42.875Z,4.87
2019-05-01T18:08:12.329Z,5.37
2019-05-01T18:10:41.696Z,5.08
2019-05-01T18:13:11.071Z,5.62
2019-05-01T18:15:40.456Z,5.53
2019-05-01T18:18:10.853Z,7.53
2019-05-01T18:20:41.208Z,6.42
2019-05-01T18:23:23.962Z,5.28
2019-05-01T18:26:10.189Z,5.10
2019-05-01T18:28:49.984Z,5.28
2019-05-01T18:31:23.473Z,6.35
2019-05-01T18:33:56.988Z,7.55
2019-05-01T18:36:25.798Z,10.78
2019-05-01T18:38:59.834Z,8.13
2019-05-01T18:41:42.658Z,6.03
2019-05-01T18:44:12.077Z,6.62
2019-05-01T18:46:41.518Z,6.62
2019-05-01T18:49:10.914Z,9.18
2019-05-01T18:51:40.693Z,8.43
2019-05-01T18:54:10.436Z,7.22
2019-05-01T18:56:39.805Z,11.35
2019-05-01T18:59:09.640Z,7.60
2019-05-01T19:01:39.023Z,8.53
2019-05-01T19:04:08.393Z,9.73
2019-05-01T19:06:41.426Z,7.62
2019-05-01T19:09:15.180Z,8.93
2019-05-01T19:11:40.867Z,7.25
2019-05-01T19:14:11.383Z,8.23
2019-05-01T19:16:45.151Z,7.75
2019-05-01T19:19:12.618Z,8.35
2019-05-01T19:21:46.500Z,6.95
2019-05-01T19:24:16.019Z,9.95
2019-05-01T19:26:45.466Z,13.32
2019-05-01T19:29:15.307Z,7.75
2019-05-01T19:31:44.688Z,10.68
2019-05-01T19:34:14.196Z,7.47
2019-05-01T19:36:45.228Z,8.68
2019-05-01T19:39:14.736Z,9.25
2019-05-01T19:41:49.267Z,6.75
2019-05-01T19:44:18.936Z,6.85
2019-05-01T19:46:46.463Z,8.43
2019-05-01T19:49:15.860Z,8.70
2019-05-01T19:51:45.622Z,6.83
2019-05-01T19:54:15.036Z,6.70
2019-05-01T19:56:44.383Z,5.95
2019-05-01T19:59:13.756Z,8.05
2019-05-01T20:01:46.104Z,7.85
2019-05-01T20:04:15.124Z,7.83
2019-05-01T20:06:45.660Z,6.47
2019-05-01T20:09:15.021Z,6.62
2019-05-01T20:11:44.723Z,6.35
2019-05-01T20:14:14.357Z,6.87
2019-05-01T20:16:43.724Z,6.87
2019-05-01T20:19:13.103Z,6.87
2019-05-01T20:21:42.526Z,6.62
2019-05-01T20:24:11.900Z,6.85
2019-05-01T20:26:42.282Z,8.65
2019-05-01T20:29:11.651Z,8.13
2019-05-01T20:31:41.040Z,7.08
2019-05-01T20:34:11.944Z,7.65
2019-05-01T20:36:41.917Z,6.22
2019-05-01T20:39:11.830Z,8.30
2019-05-01T20:41:41.220Z,7.85
2019-05-01T20:44:13.674Z,7.67
2019-05-01T20:46:41.691Z,6.65
2019-05-01T20:49:11.081Z,6.55
2019-05-01T20:51:40.462Z,6.75
2019-05-01T20:54:09.832Z,6.08
2019-05-01T20:56:40.825Z,7.03
2019-05-01T20:59:10.475Z,6.60
2019-05-01T21:01:39.948Z,7.17
2019-05-01T21:04:16.512Z,6.83
2019-05-01T21:06:47.530Z,10.85
2019-05-01T21:09:18.531Z,7.60
2019-05-01T21:11:49.564Z,10.03
2019-05-01T21:14:22.665Z,7.87
2019-05-01T21:16:50.076Z,8.35
2019-05-01T21:19:19.556Z,7.50
2019-05-01T21:21:48.924Z,8.55
2019-05-01T21:24:18.293Z,6.95
2019-05-01T21:26:47.667Z,9.30
2019-05-01T21:29:18.473Z,7.47
2019-05-01T21:31:48.127Z,9.55
2019-05-01T21:34:17.506Z,8.60
2019-05-01T21:36:52.512Z,8.53
2019-05-01T21:39:19.822Z,7.55
2019-05-01T21:41:49.106Z,6.72
2019-05-01T21:44:18.481Z,7.67
2019-05-01T21:46:47.844Z,8.05
2019-05-01T21:49:17.295Z,7.90
2019-05-01T21:51:46.672Z,6.70
2019-05-01T21:54:20.527Z,8.98
2019-05-01T21:56:47.155Z,10.40
2019-05-01T21:59:16.518Z,8.90
2019-05-01T22:01:45.901Z,9.00
2019-05-01T22:04:15.289Z,10.72
2019-05-01T22:06:46.753Z,10.08
2019-05-01T22:09:17.655Z,11.38
2019-05-01T22:11:47.100Z,11.68
2019-05-01T22:14:18.663Z,10.43
2019-05-01T22:16:48.105Z,10.75
2019-05-01T22:19:21.933Z,11.70
2019-05-01T22:21:58.696Z,10.93
2019-05-01T22:24:38.824Z,10.00
2019-05-01T22:27:21.558Z,11.93
2019-05-01T22:29:52.585Z,12.10
2019-05-01T22:32:34.140Z,12.15
2019-05-01T22:35:09.543Z,15.60
2019-05-01T22:37:43.521Z,11.95
2019-05-01T22:40:14.874Z,12.40
2019-05-01T22:42:44.251Z,15.30
2019-05-01T22:45:21.015Z,14.98
2019-05-01T22:47:52.063Z,15.63
2019-05-01T22:50:21.692Z,17.15
2019-05-01T22:52:51.634Z,17.10
2019-05-01T22:55:25.272Z,19.02
2019-05-01T22:57:52.610Z,16.75
2019-05-01T23:00:33.508Z,16.10
2019-05-01T23:03:05.575Z,19.30
2019-05-01T23:05:35.643Z,13.57
2019-05-01T23:08:05.045Z,16.45
2019-05-01T23:10:34.796Z,13.03
2019-05-01T23:13:05.005Z,14.45
2019-05-01T23:18:21.249Z,13.03
2019-05-01T23:20:50.617Z,14.23
2019-05-01T23:23:20.014Z,13.90
2019-05-01T23:25:49.415Z,14.80
2019-05-01T23:28:18.781Z,15.50
2019-05-01T23:30:48.227Z,15.68
2019-05-01T23:33:17.616Z,13.15
2019-05-01T23:35:48.102Z,16.32
2019-05-01T23:38:17.469Z,13.03
2019-05-01T23:40:51.072Z,14.07
2019-05-01T23:43:17.978Z,13.60
2019-05-01T23:45:47.355Z,18.77
2019-05-01T23:48:16.740Z,14.00
2019-05-01T23:50:46.125Z,13.88
2019-05-01T23:53:15.509Z,13.03
2019-05-01T23:55:44.897Z,13.53
2019-05-01T23:58:15.312Z,14.70
